Time;durP1;ratioP1;P1;durP2;ratioP2;P2;SDS_P1;SDS_P2;PMS_P1;PMS_P2;Temp;Humidity;BMP_temperature;BMP_pressure;BME280_temperature;BME280_humidity;BME280_pressure;Samples;Min_cycle;Max_cycle;Signal;HPM_P1;HPM_P2
2024/01/16 00:01:51;;;;;;;6.03;2.30;;;;;;;;;;5092542;28;20220;-79
2024/01/16 00:04:18;;;;;;;2.58;2.20;;;;;;;;;;5096191;28;20287;-80
2024/01/16 00:06:46;;;;;;;2.42;2.28;;;;;;;;;;5088447;28;20227;-78
2024/01/16 00:09:13;;;;;;;2.67;2.45;;;;;;;;;;5094547;28;20199;-78
2024/01/16 00:11:43;;;;;;;5.43;2.88;;;;;;;;;;5094138;28;20235;-79
2024/01/16 00:14:10;;;;;;;6.95;2.40;;;;;;;;;;5093294;28;20311;-77
2024/01/16 00:16:44;;;;;;;3.40;2.30;;;;;;;;;;5096900;28;20662;-79
2024/01/16 00:19:12;;;;;;;1.70;1.50;;;;;;;;;;5092883;28;20209;-79
2024/01/16 00:21:41;;;;;;;2.88;2.30;;;;;;;;;;5092711;28;20256;-78
2024/01/16 00:24:08;;;;;;;3.70;2.40;;;;;;;;;;5099962;28;20227;-79
2024/01/16 00:26:36;;;;;;;2.35;1.63;;;;;;;;;;5096480;28;20759;-78
2024/01/16 00:29:05;;;;;;;3.10;2.80;;;;;;;;;;5101471;28;20224;-79
2024/01/16 00:31:33;;;;;;;5.28;2.78;;;;;;;;;;5098700;28;20232;-77
2024/01/16 00:34:00;;;;;;;4.53;2.80;;;;;;;;;;5094019;28;20212;-79
2024/01/16 00:36:27;;;;;;;2.53;2.33;;;;;;;;;;5091159;28;20288;-78
2024/01/16 00:38:55;;;;;;;10.35;3.53;;;;;;;;;;5101677;28;20299;-79
2024/01/16 00:41:23;;;;;;;3.45;2.88;;;;;;;;;;5094644;28;20205;-79
2024/01/16 00:43:50;;;;;;;4.13;2.88;;;;;;;;;;5095210;28;20291;-79
2024/01/16 00:46:19;;;;;;;3.50;2.72;;;;;;;;;;5100216;28;20681;-78
2024/01/16 00:48:47;;;;;;;3.28;2.55;;;;;;;;;;5096032;28;20290;-79
2024/01/16 00:51:15;;;;;;;3.10;2.80;;;;;;;;;;5097571;28;20679;-79
2024/01/16 00:53:43;;;;;;;3.65;2.63;;;;;;;;;;5096554;28;20268;-79
2024/01/16 00:56:12;;;;;;;3.63;3.33;;;;;;;;;;5101693;28;20655;-78
2024/01/16 00:58:39;;;;;;;2.65;2.25;;;;;;;;;;5093235;28;20258;-78
2024/01/16 01:01:07;;;;;;;7.47;2.70;;;;;;;;;;5085652;28;20204;-80
2024/01/16 01:03:36;;;;;;;2.95;2.25;;;;;;;;;;5096191;28;20727;-79
2024/01/16 01:06:03;;;;;;;2.65;2.30;;;;;;;;;;5096723;28;20220;-78
2024/01/16 01:08:31;;;;;;;3.03;2.50;;;;;;;;;;5096354;28;20307;-79
2024/01/16 01:10:58;;;;;;;6.63;2.70;;;;;;;;;;5100630;28;20236;-78
2024/01/16 01:13:26;;;;;;;2.95;2.75;;;;;;;;;;5088213;28;20273;-79
2024/01/16 01:15:53;;;;;;;4.20;2.42;;;;;;;;;;5090094;28;20640;-79
2024/01/16 01:18:22;;;;;;;4.13;2.25;;;;;;;;;;5101242;28;20651;-78
2024/01/16 01:20:51;;;;;;;3.30;1.90;;;;;;;;;;5096025;28;20197;-79
2024/01/16 01:23:18;;;;;;;2.55;1.92;;;;;;;;;;5094370;28;20272;-78
2024/01/16 01:25:46;;;;;;;2.30;2.10;;;;;;;;;;5098260;28;20311;-79
2024/01/16 01:28:13;;;;;;;3.42;2.40;;;;;;;;;;5094195;28;20291;-79
2024/01/16 01:30:41;;;;;;;6.07;2.45;;;;;;;;;;5096381;28;20268;-77
2024/01/16 01:33:08;;;;;;;3.72;2.67;;;;;;;;;;5089760;28;20214;-78
2024/01/16 01:35:36;;;;;;;4.25;2.33;;;;;;;;;;5096624;28;20288;-78
2024/01/16 01:38:06;;;;;;;3.30;2.50;;;;;;;;;;5098410;28;20220;-77
2024/01/16 01:40:34;;;;;;;3.13;2.83;;;;;;;;;;5099888;28;20215;-78
2024/01/16 01:43:20;;;;;;;5.07;2.38;;;;;;;;;;5092157;28;20658;-77
2024/01/16 01:45:54;;;;;;;6.20;3.10;;;;;;;;;;5095001;28;20232;-79
2024/01/16 01:48:22;;;;;;;2.90;2.55;;;;;;;;;;5084729;28;20227;-78
2024/01/16 01:50:49;;;;;;;4.35;3.08;;;;;;;;;;5093379;28;20283;-78
2024/01/16 01:53:18;;;;;;;4.28;2.58;;;;;;;;;;5085908;28;20686;-78
2024/01/16 01:55:46;;;;;;;2.88;2.60;;;;;;;;;;5096629;28;20303;-79
2024/01/16 01:58:13;;;;;;;4.22;2.72;;;;;;;;;;5094154;28;20264;-79
2024/01/16 02:00:41;;;;;;;6.45;3.53;;;;;;;;;;5094752;28;20268;-78
2024/01/16 02:03:09;;;;;;;5.15;3.03;;;;;;;;;;5090937;28;20287;-79
2024/01/16 02:05:36;;;;;;;6.15;3.33;;;;;;;;;;5094740;28;20226;-79
2024/01/16 02:08:04;;;;;;;6.40;3.28;;;;;;;;;;5098299;28;20223;-79
2024/01/16 02:10:33;;;;;;;4.65;2.50;;;;;;;;;;5099499;28;20232;-79
2024/01/16 02:13:02;;;;;;;5.63;2.78;;;;;;;;;;5098373;28;20284;-80
2024/01/16 02:15:29;;;;;;;1.95;1.80;;;;;;;;;;5094773;28;20221;-78
2024/01/16 02:17:58;;;;;;;4.13;2.47;;;;;;;;;;5096438;28;20877;-78
2024/01/16 02:20:25;;;;;;;4.15;2.90;;;;;;;;;;5094532;28;20247;-79
2024/01/16 02:22:54;;;;;;;4.68;3.30;;;;;;;;;;5090890;28;20268;-79
2024/01/16 02:25:23;;;;;;;5.63;3.22;;;;;;;;;;5098348;28;20375;-77
2024/01/16 02:27:51;;;;;;;5.55;2.65;;;;;;;;;;5098896;28;20221;-79
2024/01/16 02:30:18;;;;;;;5.28;3.00;;;;;;;;;;5098789;28;20287;-79
2024/01/16 02:32:45;;;;;;;5.03;3.10;;;;;;;;;;5098784;28;20289;-79
2024/01/16 02:35:13;;;;;;;7.38;3.38;;;;;;;;;;5097103;28;20216;-77
2024/01/16 02:37:40;;;;;;;3.38;3.08;;;;;;;;;;5093425;28;20279;-79
2024/01/16 02:40:09;;;;;;;3.03;2.70;;;;;;;;;;5090647;28;20239;-77
2024/01/16 02:42:38;;;;;;;2.58;2.33;;;;;;;;;;5095713;28;20200;-79
2024/01/16 02:45:07;;;;;;;3.35;3.05;;;;;;;;;;5091660;28;20227;-78
2024/01/16 02:47:34;;;;;;;4.55;2.28;;;;;;;;;;5098955;28;20239;-79
2024/01/16 02:50:02;;;;;;;5.50;2.60;;;;;;;;;;5096769;28;20193;-78
2024/01/16 02:52:30;;;;;;;2.00;1.80;;;;;;;;;;5099292;28;20209;-79
2024/01/16 02:54:57;;;;;;;5.13;2.85;;;;;;;;;;5096695;28;20675;-79
2024/01/16 02:57:25;;;;;;;10.85;3.80;;;;;;;;;;5099626;28;20230;-79
2024/01/16 02:59:54;;;;;;;3.58;2.70;;;;;;;;;;5099306;28;20268;-79
2024/01/16 03:02:22;;;;;;;7.57;2.75;;;;;;;;;;5088408;28;20279;-79
2024/01/16 03:04:50;;;;;;;4.32;2.47;;;;;;;;;;5094085;28;20288;-79
2024/01/16 03:07:16;;;;;;;2.70;2.17;;;;;;;;;;5095179;28;20529;-79
2024/01/16 03:09:44;;;;;;;3.20;2.67;;;;;;;;;;5094534;28;20226;-77
2024/01/16 03:12:11;;;;;;;2.50;2.30;;;;;;;;;;5089681;28;20269;-78
2024/01/16 03:14:39;;;;;;;3.00;2.70;;;;;;;;;;5088335;28;20311;-79
2024/01/16 03:17:07;;;;;;;2.50;2.30;;;;;;;;;;5096296;28;20698;-79
2024/01/16 03:19:35;;;;;;;7.22;2.55;;;;;;;;;;5097221;28;20200;-79
2024/01/16 03:22:03;;;;;;;4.82;2.75;;;;;;;;;;5096620;28;20272;-78
2024/01/16 03:24:31;;;;;;;2.33;2.03;;;;;;;;;;5100063;28;20223;-79
2024/01/16 03:26:58;;;;;;;2.20;2.00;;;;;;;;;;5096949;28;20676;-79
2024/01/16 03:29:26;;;;;;;2.55;2.30;;;;;;;;;;5101445;28;20224;-79
2024/01/16 03:31:54;;;;;;;2.30;2.10;;;;;;;;;;5096510;28;20623;-78
2024/01/16 03:34:24;;;;;;;2.20;2.00;;;;;;;;;;5098394;28;20224;-79
2024/01/16 03:36:51;;;;;;;2.72;2.00;;;;;;;;;;5098735;28;20246;-79
2024/01/16 03:39:19;;;;;;;7.82;3.58;;;;;;;;;;5097811;28;20279;-78
2024/01/16 03:41:46;;;;;;;4.10;2.97;;;;;;;;;;5085628;28;20212;-79
2024/01/16 03:44:14;;;;;;;4.05;2.42;;;;;;;;;;5092916;28;20778;-78
2024/01/16 03:46:41;;;;;;;4.63;2.75;;;;;;;;;;5092887;28;20224;-79
2024/01/16 03:49:09;;;;;;;3.55;2.20;;;;;;;;;;5088710;28;20275;-79
2024/01/16 03:51:38;;;;;;;2.85;2.50;;;;;;;;;;5093978;28;20264;-79
2024/01/16 03:54:06;;;;;;;3.17;2.42;;;;;;;;;;5098751;28;20226;-77
2024/01/16 03:56:33;;;;;;;3.88;2.53;;;;;;;;;;5095177;28;20232;-79
2024/01/16 03:59:00;;;;;;;3.53;2.20;;;;;;;;;;5090165;28;20204;-79
2024/01/16 04:01:36;;;;;;;3.25;2.50;;;;;;;;;;5100823;28;20268;-77
2024/01/16 04:04:06;;;;;;;2.35;1.95;;;;;;;;;;5101855;28;20207;-79
2024/01/16 04:06:33;;;;;;;6.55;3.05;;;;;;;;;;5093619;28;20213;-79
2024/01/16 04:09:02;;;;;;;4.47;3.60;;;;;;;;;;5098517;28;20300;-79
2024/01/16 04:11:30;;;;;;;6.50;3.00;;;;;;;;;;5100845;28;20232;-79
2024/01/16 04:13:57;;;;;;;4.80;1.92;;;;;;;;;;5095736;28;20224;-78
2024/01/16 04:16:25;;;;;;;5.30;2.38;;;;;;;;;;5093794;28;20193;-78
2024/01/16 04:18:52;;;;;;;1.65;1.50;;;;;;;;;;5097697;28;20204;-77
2024/01/16 04:21:20;;;;;;;5.47;2.60;;;;;;;;;;5093175;28;20209;-77
2024/01/16 04:23:48;;;;;;;2.90;1.80;;;;;;;;;;5098821;28;20283;-78
2024/01/16 04:26:15;;;;;;;3.38;1.73;;;;;;;;;;5095976;28;20196;-79
2024/01/16 04:28:43;;;;;;;2.00;1.60;;;;;;;;;;5098985;28;20311;-78
2024/01/16 04:31:12;;;;;;;3.25;1.95;;;;;;;;;;5101177;28;20203;-77
2024/01/16 04:33:42;;;;;;;1.85;1.75;;;;;;;;;;5093678;28;20209;-78
2024/01/16 04:36:09;;;;;;;3.03;2.20;;;;;;;;;;5087522;28;20642;-79
2024/01/16 04:38:37;;;;;;;2.55;1.88;;;;;;;;;;5097422;28;20196;-78
2024/01/16 04:41:05;;;;;;;4.50;2.35;;;;;;;;;;5090842;28;20262;-78
2024/01/16 04:43:34;;;;;;;2.60;1.95;;;;;;;;;;5095261;28;20703;-79
2024/01/16 04:46:01;;;;;;;2.58;1.77;;;;;;;;;;5090435;28;20684;-78
2024/01/16 04:48:28;;;;;;;2.15;1.95;;;;;;;;;;5094041;28;20283;-79
2024/01/16 04:50:56;;;;;;;2.53;1.55;;;;;;;;;;5092464;28;20267;-78
2024/01/16 04:53:24;;;;;;;4.47;2.08;;;;;;;;;;5087775;28;20227;-79
2024/01/16 04:55:52;;;;;;;2.63;1.77;;;;;;;;;;5096576;28;20228;-78
2024/01/16 04:58:19;;;;;;;1.35;1.25;;;;;;;;;;5097619;28;20227;-77
2024/01/16 05:00:48;;;;;;;1.77;1.40;;;;;;;;;;5098296;28;20203;-79
2024/01/16 05:03:15;;;;;;;2.33;1.50;;;;;;;;;;5093776;28;20257;-79
2024/01/16 05:05:43;;;;;;;2.15;1.65;;;;;;;;;;5092090;28;20370;-79
2024/01/16 05:08:11;;;;;;;2.17;1.77;;;;;;;;;;5085887;28;20197;-79
2024/01/16 05:10:38;;;;;;;4.35;1.95;;;;;;;;;;5089218;28;20220;-79
2024/01/16 05:13:05;;;;;;;3.03;1.75;;;;;;;;;;5090647;28;20650;-78
2024/01/16 05:15:33;;;;;;;1.67;1.40;;;;;;;;;;5096809;28;20304;-79
2024/01/16 05:18:03;;;;;;;3.30;2.13;;;;;;;;;;5092368;28;20239;-79
2024/01/16 05:20:31;;;;;;;2.80;2.03;;;;;;;;;;5089924;28;20232;-79
2024/01/16 05:22:58;;;;;;;2.85;2.20;;;;;;;;;;5095281;28;20201;-78
2024/01/16 05:25:26;;;;;;;2.17;1.88;;;;;;;;;;5096381;28;20307;-78
2024/01/16 05:27:53;;;;;;;2.42;1.85;;;;;;;;;;5087090;28;20203;-79
2024/01/16 05:30:20;;;;;;;6.65;3.22;;;;;;;;;;5092818;28;20312;-77
2024/01/16 05:32:48;;;;;;;2.13;1.73;;;;;;;;;;5092511;28;20280;-77
2024/01/16 05:35:17;;;;;;;2.58;1.83;;;;;;;;;;5089125;28;20241;-79
2024/01/16 05:37:44;;;;;;;3.05;1.95;;;;;;;;;;5096603;28;20200;-78
2024/01/16 05:40:13;;;;;;;2.22;1.58;;;;;;;;;;5082175;28;20593;-78
2024/01/16 05:42:40;;;;;;;2.38;1.90;;;;;;;;;;5094179;28;20282;-79
2024/01/16 05:45:09;;;;;;;1.73;1.60;;;;;;;;;;5092870;28;20774;-79
2024/01/16 05:47:37;;;;;;;1.70;1.60;;;;;;;;;;5090301;28;20201;-79
2024/01/16 05:50:05;;;;;;;1.85;1.15;;;;;;;;;;5090395;28;20286;-79
2024/01/16 05:52:34;;;;;;;3.83;3.42;;;;;;;;;;5092243;28;20334;-79
2024/01/16 05:55:02;;;;;;;3.50;2.53;;;;;;;;;;5087060;28;20283;-79
2024/01/16 05:57:33;;;;;;;2.00;1.90;;;;;;;;;;5091031;28;20209;-77
2024/01/16 06:00:02;;;;;;;5.10;2.67;;;;;;;;;;5089414;28;20694;-77
2024/01/16 06:02:30;;;;;;;2.40;2.20;;;;;;;;;;5085956;28;20221;-79
2024/01/16 06:04:57;;;;;;;2.85;2.15;;;;;;;;;;5088652;28;20225;-79
2024/01/16 06:07:24;;;;;;;5.65;3.33;;;;;;;;;;5087190;28;20200;-78
2024/01/16 06:09:53;;;;;;;4.68;4.28;;;;;;;;;;5091974;28;20225;-80
2024/01/16 06:12:21;;;;;;;2.80;2.22;;;;;;;;;;5089806;28;20283;-79
2024/01/16 06:14:49;;;;;;;2.20;2.03;;;;;;;;;;5091296;28;20694;-78
2024/01/16 06:17:16;;;;;;;2.70;2.50;;;;;;;;;;5085400;28;20280;-78
2024/01/16 06:19:44;;;;;;;1.70;1.60;;;;;;;;;;5093195;28;20209;-78
2024/01/16 06:22:11;;;;;;;2.42;1.90;;;;;;;;;;5093559;28;20232;-77
2024/01/16 06:24:39;;;;;;;1.70;1.60;;;;;;;;;;5086762;28;20720;-78
2024/01/16 06:27:08;;;;;;;2.47;1.83;;;;;;;;;;5095091;28;20201;-78
2024/01/16 06:29:35;;;;;;;2.25;1.40;;;;;;;;;;5086117;28;20197;-79
2024/01/16 06:32:03;;;;;;;2.25;1.60;;;;;;;;;;5094397;28;20215;-77
2024/01/16 06:34:30;;;;;;;4.70;2.20;;;;;;;;;;5091198;28;20513;-78
2024/01/16 06:36:58;;;;;;;2.67;1.83;;;;;;;;;;5093124;28;20204;-78
2024/01/16 06:39:25;;;;;;;1.92;1.50;;;;;;;;;;5086458;28;20236;-77
2024/01/16 06:41:53;;;;;;;1.63;1.27;;;;;;;;;;5092932;28;20277;-78
2024/01/16 06:44:21;;;;;;;1.60;1.50;;;;;;;;;;5081430;28;20299;-80
2024/01/16 06:46:49;;;;;;;1.38;1.27;;;;;;;;;;5087581;28;20290;-79
2024/01/16 06:49:16;;;;;;;1.50;1.40;;;;;;;;;;5089651;28;20192;-79
2024/01/16 06:51:44;;;;;;;1.50;1.40;;;;;;;;;;5092275;28;20323;-78
2024/01/16 06:54:11;;;;;;;1.70;1.60;;;;;;;;;;5092092;28;20681;-78
2024/01/16 06:56:39;;;;;;;1.75;1.65;;;;;;;;;;5097574;28;20263;-79
2024/01/16 06:59:06;;;;;;;1.40;1.30;;;;;;;;;;5093580;28;20228;-79
2024/01/16 07:01:35;;;;;;;1.85;1.25;;;;;;;;;;5092017;28;20196;-79
2024/01/16 07:04:03;;;;;;;1.80;1.30;;;;;;;;;;5094271;28;20270;-79
2024/01/16 07:06:30;;;;;;;3.70;1.33;;;;;;;;;;5093588;28;20255;-79
2024/01/16 07:08:58;;;;;;;1.45;1.40;;;;;;;;;;5093665;28;20294;-79
2024/01/16 07:11:25;;;;;;;1.77;1.50;;;;;;;;;;5094747;28;20645;-78
2024/01/16 07:13:53;;;;;;;1.20;1.10;;;;;;;;;;5098434;28;20244;-78
2024/01/16 07:16:20;;;;;;;2.80;1.50;;;;;;;;;;5089461;28;20218;-78
2024/01/16 07:18:49;;;;;;;2.10;1.45;;;;;;;;;;5094905;28;20214;-79
2024/01/16 07:21:20;;;;;;;2.08;1.63;;;;;;;;;;5094162;28;20287;-79
2024/01/16 07:23:48;;;;;;;2.38;1.75;;;;;;;;;;5090750;28;20204;-79
2024/01/16 07:26:16;;;;;;;1.70;1.30;;;;;;;;;;5100353;28;20283;-77
2024/01/16 07:28:44;;;;;;;1.25;1.15;;;;;;;;;;5092117;28;20287;-77
2024/01/16 07:31:11;;;;;;;1.80;1.50;;;;;;;;;;5089882;28;20265;-78
2024/01/16 07:33:39;;;;;;;1.45;1.35;;;;;;;;;;5092322;28;20204;-79
2024/01/16 07:36:09;;;;;;;1.30;1.10;;;;;;;;;;5094669;28;20311;-79
2024/01/16 07:38:37;;;;;;;1.10;1.00;;;;;;;;;;5091345;28;20255;-78
2024/01/16 07:41:05;;;;;;;2.88;1.50;;;;;;;;;;5094641;28;20254;-79
2024/01/16 07:43:32;;;;;;;2.15;1.10;;;;;;;;;;5103683;28;20631;-77
2024/01/16 07:46:00;;;;;;;1.85;1.30;;;;;;;;;;5090000;28;20225;-78
2024/01/16 07:48:27;;;;;;;1.95;1.38;;;;;;;;;;5098658;28;20232;-79
2024/01/16 07:50:55;;;;;;;3.45;1.40;;;;;;;;;;5098554;28;20219;-79
2024/01/16 07:53:27;;;;;;;1.40;1.30;;;;;;;;;;5097424;28;20719;-78
2024/01/16 07:55:55;;;;;;;1.20;1.10;;;;;;;;;;5096115;28;20220;-78
2024/01/16 07:58:23;;;;;;;1.88;1.73;;;;;;;;;;5095539;28;20210;-78
2024/01/16 08:00:50;;;;;;;1.35;1.25;;;;;;;;;;5089933;28;20201;-80
2024/01/16 08:03:18;;;;;;;1.10;1.00;;;;;;;;;;5098081;28;20200;-79
2024/01/16 08:05:45;;;;;;;3.75;1.25;;;;;;;;;;5097626;28;20335;-79
2024/01/16 08:08:13;;;;;;;1.73;1.35;;;;;;;;;;5090411;28;20707;-79
2024/01/16 08:10:45;;;;;;;1.98;1.50;;;;;;;;;;5098249;28;20210;-79
2024/01/16 08:13:12;;;;;;;1.70;1.55;;;;;;;;;;5098946;28;20231;-77
2024/01/16 08:15:40;;;;;;;1.42;1.30;;;;;;;;;;5091130;28;20228;-79
2024/01/16 08:18:07;;;;;;;2.75;1.40;;;;;;;;;;5090668;28;20695;-79
2024/01/16 08:20:35;;;;;;;3.13;1.48;;;;;;;;;;5099245;28;20247;-78
2024/01/16 08:23:02;;;;;;;2.95;1.65;;;;;;;;;;5102364;28;20261;-78
2024/01/16 08:25:30;;;;;;;1.67;1.58;;;;;;;;;;5098455;28;20251;-78
2024/01/16 08:27:59;;;;;;;2.25;1.88;;;;;;;;;;5097222;28;20268;-78
2024/01/16 08:30:26;;;;;;;2.10;1.90;;;;;;;;;;5094097;28;20212;-78
2024/01/16 08:32:54;;;;;;;4.68;2.55;;;;;;;;;;5090305;28;20228;-79
2024/01/16 08:35:21;;;;;;;1.70;1.23;;;;;;;;;;5093533;28;20666;-78
2024/01/16 08:37:50;;;;;;;1.60;1.48;;;;;;;;;;5093181;28;20299;-77
2024/01/16 08:40:17;;;;;;;2.58;1.83;;;;;;;;;;5096414;28;20208;-78
2024/01/16 08:42:45;;;;;;;1.65;1.52;;;;;;;;;;5092607;28;20198;-77
2024/01/16 08:45:14;;;;;;;2.53;1.50;;;;;;;;;;5099063;28;20292;-78
2024/01/16 08:47:41;;;;;;;1.75;1.40;;;;;;;;;;5094618;28;20239;-78
2024/01/16 08:50:09;;;;;;;2.15;2.05;;;;;;;;;;5101186;28;20279;-79
2024/01/16 08:52:37;;;;;;;1.60;1.50;;;;;;;;;;5096932;28;20258;-79
2024/01/16 08:55:05;;;;;;;1.45;1.35;;;;;;;;;;5096401;28;20304;-79
2024/01/16 08:57:32;;;;;;;1.30;1.20;;;;;;;;;;5102914;28;20610;-78
2024/01/16 09:00:00;;;;;;;1.60;1.50;;;;;;;;;;5098559;28;20211;-79
2024/01/16 09:02:30;;;;;;;3.58;1.83;;;;;;;;;;5094682;28;20264;-79
2024/01/16 09:04:58;;;;;;;1.98;1.88;;;;;;;;;;5097472;28;20232;-79
2024/01/16 09:07:26;;;;;;;2.38;2.17;;;;;;;;;;5092028;28;20196;-79
2024/01/16 09:09:53;;;;;;;1.60;1.50;;;;;;;;;;5097590;28;20212;-78
2024/01/16 09:12:21;;;;;;;2.03;1.83;;;;;;;;;;5087104;28;20217;-80
2024/01/16 09:14:48;;;;;;;2.58;1.90;;;;;;;;;;5084365;28;20220;-79
2024/01/16 09:17:16;;;;;;;1.70;1.60;;;;;;;;;;5082446;28;20621;-80
2024/01/16 09:19:44;;;;;;;2.63;2.42;;;;;;;;;;5094101;28;20212;-79
2024/01/16 09:22:12;;;;;;;1.98;1.88;;;;;;;;;;5092342;28;20283;-80
2024/01/16 09:24:39;;;;;;;3.05;2.75;;;;;;;;;;5082420;28;20240;-78
2024/01/16 09:27:09;;;;;;;2.50;2.30;;;;;;;;;;5085935;28;20207;-80
2024/01/16 09:29:37;;;;;;;2.42;2.20;;;;;;;;;;5090787;28;20262;-79
2024/01/16 09:32:06;;;;;;;2.28;2.05;;;;;;;;;;5085245;28;20251;-80
2024/01/16 09:34:34;;;;;;;3.00;2.25;;;;;;;;;;5081335;28;20256;-79
2024/01/16 09:37:03;;;;;;;2.00;1.85;;;;;;;;;;5088445;28;20272;-79
2024/01/16 09:39:31;;;;;;;2.65;1.88;;;;;;;;;;5099983;28;20706;-78
2024/01/16 09:42:01;;;;;;;1.95;1.55;;;;;;;;;;5104908;28;20287;-79
2024/01/16 09:44:29;;;;;;;3.20;2.05;;;;;;;;;;5102905;28;20220;-79
2024/01/16 09:46:57;;;;;;;1.98;1.77;;;;;;;;;;5105105;28;20279;-77
2024/01/16 09:49:25;;;;;;;1.60;1.50;;;;;;;;;;5102976;28;20233;-79
2024/01/16 09:51:53;;;;;;;2.10;1.92;;;;;;;;;;5100789;28;20239;-79
2024/01/16 09:54:22;;;;;;;3.15;2.35;;;;;;;;;;5104019;28;20220;-78
2024/01/16 09:56:54;;;;;;;2.30;2.03;;;;;;;;;;5100817;28;20276;-79
2024/01/16 09:59:22;;;;;;;2.20;1.98;;;;;;;;;;5092848;28;20666;-78
2024/01/16 10:01:51;;;;;;;1.70;1.60;;;;;;;;;;5098844;28;20288;-79
2024/01/16 10:04:18;;;;;;;2.13;1.98;;;;;;;;;;5101958;28;20234;-79
2024/01/16 10:06:47;;;;;;;2.50;2.30;;;;;;;;;;5103895;28;20272;-79
2024/01/16 10:09:15;;;;;;;2.50;2.22;;;;;;;;;;5097328;28;20196;-78
2024/01/16 10:11:44;;;;;;;2.80;2.60;;;;;;;;;;5093538;28;20239;-78
2024/01/16 10:14:12;;;;;;;2.30;2.10;;;;;;;;;;5100151;28;20311;-78
2024/01/16 10:17:02;;;;;;;1.80;1.70;;;;;;;;;;5095931;28;20268;-78
2024/01/16 10:19:30;;;;;;;2.70;2.45;;;;;;;;;;5097636;28;20812;-79
2024/01/16 10:22:04;;;;;;;3.35;2.22;;;;;;;;;;5099660;28;20281;-79
2024/01/16 10:24:33;;;;;;;3.92;2.97;;;;;;;;;;5099827;28;20244;-79
2024/01/16 10:27:03;;;;;;;3.42;2.05;;;;;;;;;;5096376;28;20210;-78
2024/01/16 10:29:31;;;;;;;2.10;2.00;;;;;;;;;;5100913;28;20201;-78
2024/01/16 10:31:59;;;;;;;3.22;2.20;;;;;;;;;;5095037;28;20215;-78
2024/01/16 10:34:26;;;;;;;1.83;1.60;;;;;;;;;;5101838;28;20307;-79
2024/01/16 10:37:00;;;;;;;2.30;1.80;;;;;;;;;;5097647;28;20307;-78
2024/01/16 10:39:28;;;;;;;3.38;1.35;;;;;;;;;;5098110;28;20769;-79
2024/01/16 10:41:56;;;;;;;2.95;2.50;;;;;;;;;;5094979;28;20267;-78
2024/01/16 10:44:27;;;;;;;1.83;1.73;;;;;;;;;;5090550;28;20312;-79
2024/01/16 10:47:02;;;;;;;1.55;1.38;;;;;;;;;;5097416;28;20705;-77
2024/01/16 10:49:30;;;;;;;3.22;1.80;;;;;;;;;;5102707;28;20272;-76
2024/01/16 10:51:57;;;;;;;5.63;2.10;;;;;;;;;;5102720;28;20697;-77
2024/01/16 10:54:25;;;;;;;2.22;2.03;;;;;;;;;;5101632;28;20316;-78
2024/01/16 10:56:53;;;;;;;2.58;1.75;;;;;;;;;;5100306;28;20291;-77
2024/01/16 10:59:22;;;;;;;2.40;1.77;;;;;;;;;;5096424;28;20295;-79
2024/01/16 11:01:54;;;;;;;1.92;1.42;;;;;;;;;;5093824;28;20291;-79
2024/01/16 11:04:22;;;;;;;3.08;1.75;;;;;;;;;;5096445;28;20279;-79
2024/01/16 11:06:53;;;;;;;6.63;3.08;;;;;;;;;;5100644;28;20235;-79
2024/01/16 11:09:22;;;;;;;1.55;1.45;;;;;;;;;;5097000;28;20197;-79
2024/01/16 11:11:51;;;;;;;3.97;1.75;;;;;;;;;;5097183;28;20264;-78
2024/01/16 11:14:19;;;;;;;4.07;2.17;;;;;;;;;;5094011;28;20291;-79
2024/01/16 11:16:50;;;;;;;2.10;1.25;;;;;;;;;;5093292;28;20224;-78
2024/01/16 11:19:19;;;;;;;4.05;2.25;;;;;;;;;;5095876;28;20729;-78
2024/01/16 11:21:47;;;;;;;1.85;1.75;;;;;;;;;;5096330;28;20204;-78
2024/01/16 11:24:15;;;;;;;1.95;1.85;;;;;;;;;;5089635;28;20284;-77
2024/01/16 11:26:43;;;;;;;3.42;2.05;;;;;;;;;;5096778;28;20287;-79
2024/01/16 11:29:36;;;;;;;6.53;2.50;;;;;;;;;;5095266;28;20223;-79
2024/01/16 11:32:06;;;;;;;2.78;1.98;;;;;;;;;;5088875;28;20665;-80
2024/01/16 11:34:58;;;;;;;2.42;2.05;;;;;;;;;;5075275;28;20233;-79
2024/01/16 11:37:29;;;;;;;4.70;2.47;;;;;;;;;;5092777;28;20254;-80
2024/01/16 11:40:23;;;;;;;3.78;2.58;;;;;;;;;;5080534;28;20207;-81
2024/01/16 11:42:53;;;;;;;3.10;2.63;;;;;;;;;;5089081;28;20207;-79
2024/01/16 11:45:52;;;;;;;1.98;1.83;;;;;;;;;;5084420;28;20568;-77
2024/01/16 11:48:21;;;;;;;2.13;1.90;;;;;;;;;;5080535;28;20207;-79
2024/01/16 11:50:49;;;;;;;2.30;2.10;;;;;;;;;;5095641;28;20238;-79
2024/01/16 11:53:38;;;;;;;3.00;2.70;;;;;;;;;;5082188;28;20230;-78
2024/01/16 11:56:36;;;;;;;2.88;2.65;;;;;;;;;;5080124;28;20311;-80
2024/01/16 11:59:29;;;;;;;2.40;1.98;;;;;;;;;;5078566;28;20209;-80
2024/01/16 12:02:00;;;;;;;3.60;3.28;;;;;;;;;;5077093;28;20295;-80
2024/01/16 12:04:28;;;;;;;3.13;2.83;;;;;;;;;;5090146;28;20230;-80
2024/01/16 12:06:59;;;;;;;3.75;2.85;;;;;;;;;;5087430;28;20201;-79
2024/01/16 12:09:29;;;;;;;5.45;2.88;;;;;;;;;;5091997;28;20208;-79
2024/01/16 12:12:01;;;;;;;4.05;2.72;;;;;;;;;;5079765;28;20205;-79
2024/01/16 12:14:29;;;;;;;3.40;2.38;;;;;;;;;;5090946;28;20224;-79
2024/01/16 12:17:11;;;;;;;2.33;2.13;;;;;;;;;;5090273;28;20233;-80
2024/01/16 12:19:42;;;;;;;6.55;2.70;;;;;;;;;;5078653;28;20220;-80
2024/01/16 12:22:10;;;;;;;2.35;1.88;;;;;;;;;;5084113;28;20216;-80
2024/01/16 12:24:38;;;;;;;1.85;1.75;;;;;;;;;;5087327;28;20832;-79
2024/01/16 12:27:06;;;;;;;2.13;1.92;;;;;;;;;;5089346;28;20207;-79
2024/01/16 12:29:33;;;;;;;4.38;2.10;;;;;;;;;;5096847;28;20216;-80
2024/01/16 12:32:09;;;;;;;4.63;3.00;;;;;;;;;;5088621;28;20203;-79
2024/01/16 12:34:45;;;;;;;3.63;2.20;;;;;;;;;;5090372;28;20277;-79
2024/01/16 12:37:12;;;;;;;3.65;2.75;;;;;;;;;;5087665;28;20651;-78
2024/01/16 12:39:41;;;;;;;2.70;2.38;;;;;;;;;;5084129;28;20235;-80
2024/01/16 12:42:11;;;;;;;8.63;3.15;;;;;;;;;;5092249;28;20200;-78
2024/01/16 12:44:39;;;;;;;7.45;2.47;;;;;;;;;;5089976;28;20698;-80
2024/01/16 12:47:06;;;;;;;7.38;2.80;;;;;;;;;;5085393;28;20197;-77
2024/01/16 12:49:34;;;;;;;2.75;2.13;;;;;;;;;;5084268;28;20201;-80
2024/01/16 12:52:20;;;;;;;3.80;2.38;;;;;;;;;;5089991;28;20292;-81
2024/01/16 12:54:48;;;;;;;4.13;2.63;;;;;;;;;;5083440;28;20255;-79
2024/01/16 12:57:20;;;;;;;3.17;2.20;;;;;;;;;;5090558;28;20255;-80
2024/01/16 12:59:49;;;;;;;2.13;1.92;;;;;;;;;;5088751;28;20211;-80
2024/01/16 13:02:26;;;;;;;2.85;2.03;;;;;;;;;;5091735;28;20201;-80
2024/01/16 13:05:01;;;;;;;3.53;2.40;;;;;;;;;;5090498;28;20224;-80
2024/01/16 13:07:32;;;;;;;2.47;1.80;;;;;;;;;;5076793;28;20200;-79
2024/01/16 13:10:11;;;;;;;2.65;2.45;;;;;;;;;;5087900;28;20209;-80
2024/01/16 13:12:39;;;;;;;2.30;1.60;;;;;;;;;;5084979;28;20201;-80
2024/01/16 13:15:07;;;;;;;2.70;2.28;;;;;;;;;;5094487;28;20311;-80
2024/01/16 13:17:35;;;;;;;2.28;1.80;;;;;;;;;;5082675;28;20655;-79
2024/01/16 13:20:07;;;;;;;3.75;1.77;;;;;;;;;;5084340;28;20203;-80
2024/01/16 13:22:35;;;;;;;3.95;1.80;;;;;;;;;;5089244;28;20199;-80
2024/01/16 13:25:05;;;;;;;2.20;2.00;;;;;;;;;;5086248;28;20223;-80
2024/01/16 13:27:32;;;;;;;3.42;2.55;;;;;;;;;;5089532;28;20212;-80
2024/01/16 13:30:01;;;;;;;2.63;2.40;;;;;;;;;;5087482;28;20204;-78
2024/01/16 13:32:29;;;;;;;1.70;1.40;;;;;;;;;;5098847;28;20212;-79
2024/01/16 13:34:56;;;;;;;2.38;1.75;;;;;;;;;;5085850;28;20750;-79
2024/01/16 13:37:24;;;;;;;2.63;1.60;;;;;;;;;;5097089;28;20292;-79
2024/01/16 13:39:52;;;;;;;4.22;2.13;;;;;;;;;;5094740;28;20212;-80
2024/01/16 13:42:20;;;;;;;1.73;1.60;;;;;;;;;;5092815;28;20639;-79
2024/01/16 13:44:48;;;;;;;2.72;1.60;;;;;;;;;;5095432;28;20313;-79
2024/01/16 13:47:18;;;;;;;2.53;1.50;;;;;;;;;;5095744;28;20197;-79
2024/01/16 13:49:46;;;;;;;2.22;1.48;;;;;;;;;;5094036;28;20192;-79
2024/01/16 13:52:14;;;;;;;1.80;1.50;;;;;;;;;;5095474;28;20573;-79
2024/01/16 13:54:41;;;;;;;1.45;1.35;;;;;;;;;;5093105;28;20315;-78
2024/01/16 13:57:10;;;;;;;3.10;1.80;;;;;;;;;;5095236;28;20201;-79
2024/01/16 13:59:38;;;;;;;11.25;1.63;;;;;;;;;;5096042;28;20292;-78
2024/01/16 14:02:08;;;;;;;3.45;1.80;;;;;;;;;;5093174;28;20200;-78
2024/01/16 14:04:35;;;;;;;1.95;1.17;;;;;;;;;;5092749;28;20224;-77
2024/01/16 14:07:03;;;;;;;2.92;1.67;;;;;;;;;;5096623;28;20235;-80
2024/01/16 14:09:35;;;;;;;3.53;1.95;;;;;;;;;;5096336;28;20551;-79
2024/01/16 14:12:02;;;;;;;1.80;1.55;;;;;;;;;;5095920;28;20196;-78
2024/01/16 14:14:31;;;;;;;1.65;1.52;;;;;;;;;;5093326;28;20315;-79
2024/01/16 14:16:59;;;;;;;5.45;1.30;;;;;;;;;;5092397;28;20232;-79
2024/01/16 14:19:27;;;;;;;1.75;1.40;;;;;;;;;;5093938;28;20228;-79
2024/01/16 14:21:56;;;;;;;3.25;1.55;;;;;;;;;;5096032;28;20204;-79
2024/01/16 14:24:23;;;;;;;1.25;1.15;;;;;;;;;;5089476;28;20611;-79
2024/01/16 14:26:51;;;;;;;2.80;1.42;;;;;;;;;;5094544;28;20425;-79
2024/01/16 14:29:18;;;;;;;1.15;1.10;;;;;;;;;;5093875;28;20239;-79
2024/01/16 14:31:48;;;;;;;1.40;1.27;;;;;;;;;;5096647;28;20213;-81
2024/01/16 14:34:17;;;;;;;2.75;1.48;;;;;;;;;;5098868;28;20239;-79
2024/01/16 14:36:44;;;;;;;1.88;1.27;;;;;;;;;;5094541;28;20634;-79
2024/01/16 14:39:13;;;;;;;1.73;1.40;;;;;;;;;;5098923;28;20232;-79
2024/01/16 14:41:40;;;;;;;1.02;0.95;;;;;;;;;;5097103;28;20280;-79
2024/01/16 14:44:10;;;;;;;1.67;1.48;;;;;;;;;;5096503;28;20227;-78
2024/01/16 14:46:38;;;;;;;1.52;1.40;;;;;;;;;;5095262;28;20658;-77
2024/01/16 14:49:07;;;;;;;1.67;1.50;;;;;;;;;;5099358;28;20645;-78
2024/01/16 14:51:35;;;;;;;2.15;1.85;;;;;;;;;;5093013;28;20231;-79
2024/01/16 14:54:02;;;;;;;1.75;1.65;;;;;;;;;;5098844;28;20204;-79